Time;durP1;ratioP1;P1;durP2;ratioP2;P2;SDS_P1;SDS_P2;PMS_P1;PMS_P2;Temp;Humidity;BMP_temperature;BMP_pressure;BME280_temperature;BME280_humidity;BME280_pressure;Samples;Min_cycle;Max_cycle;Signal;HPM_P1;HPM_P2
2022/12/16 00:01:38;;;;;;;5.80;4.10;;;;;;;20.58;30.01;100984.28;5074397;28;20037;-70
2022/12/16 00:04:03;;;;;;;5.25;4.63;;;;;;;20.60;29.91;100981.44;5053552;28;20048;-71
2022/12/16 00:06:32;;;;;;;7.05;4.53;;;;;;;20.55;30.01;100975.88;5074759;28;20257;-71
2022/12/16 00:08:59;;;;;;;5.30;4.45;;;;;;;20.57;29.92;100973.88;5074664;28;20047;-71
2022/12/16 00:11:24;;;;;;;4.95;3.90;;;;;;;20.58;29.99;100981.63;5076800;28;20121;-71
2022/12/16 00:13:50;;;;;;;5.03;4.05;;;;;;;20.56;29.98;100982.81;5071035;28;20056;-71
2022/12/16 00:16:17;;;;;;;7.18;4.68;;;;;;;20.59;30.07;100987.75;5072825;28;20486;-71
2022/12/16 00:18:44;;;;;;;5.45;4.30;;;;;;;20.59;29.98;100985.09;5071870;28;20040;-70
2022/12/16 00:21:10;;;;;;;5.20;3.97;;;;;;;20.56;29.97;100988.91;5074509;28;20087;-71
2022/12/16 00:23:37;;;;;;;5.32;4.10;;;;;;;20.55;29.92;100984.63;5073985;28;20486;-72
2022/12/16 00:26:04;;;;;;;5.18;4.57;;;;;;;20.56;30.05;100988.91;5071968;28;20123;-71
2022/12/16 00:28:30;;;;;;;5.43;4.13;;;;;;;20.50;30.03;100987.00;5070674;28;20052;-71
2022/12/16 00:30:56;;;;;;;5.95;4.68;;;;;;;20.49;30.24;100986.19;5072405;28;20118;-70
2022/12/16 00:33:24;;;;;;;5.93;4.72;;;;;;;20.49;30.11;100986.19;5071501;28;20118;-71
2022/12/16 00:35:50;;;;;;;4.65;4.15;;;;;;;20.49;30.30;100993.31;5073584;28;20028;-70
2022/12/16 00:38:16;;;;;;;5.88;4.72;;;;;;;20.44;29.89;100993.00;5073802;28;20471;-71
2022/12/16 00:40:42;;;;;;;6.03;4.72;;;;;;;20.38;30.17;100986.59;5069479;28;20041;-71
2022/12/16 00:43:08;;;;;;;4.97;4.10;;;;;;;20.36;30.16;100991.22;5074549;28;20032;-71
2022/12/16 00:45:34;;;;;;;4.78;4.20;;;;;;;20.49;30.03;101001.25;5073055;28;20041;-72
2022/12/16 00:47:59;;;;;;;5.50;4.22;;;;;;;20.45;30.06;101005.22;5071312;28;20071;-71
2022/12/16 00:50:25;;;;;;;5.22;4.60;;;;;;;20.40;30.13;101007.56;5075491;28;20689;-70
2022/12/16 00:52:51;;;;;;;5.28;4.55;;;;;;;20.42;30.11;101006.41;5075196;28;20032;-71
2022/12/16 00:55:18;;;;;;;6.28;4.35;;;;;;;20.40;30.14;101004.91;5074570;28;20109;-71
2022/12/16 00:57:43;;;;;;;5.60;4.40;;;;;;;20.35;30.19;101005.47;5074906;28;20051;-71
2022/12/16 01:00:12;;;;;;;4.95;3.63;;;;;;;20.39;30.17;100996.16;5071998;28;20047;-72
2022/12/16 01:02:44;;;;;;;5.38;4.20;;;;;;;20.40;30.24;101000.44;5074342;28;20040;-71
2022/12/16 01:05:11;;;;;;;5.47;4.95;;;;;;;20.36;30.21;101004.47;5077996;28;20120;-71
2022/12/16 01:07:37;;;;;;;5.55;4.28;;;;;;;20.34;30.26;101003.81;5075481;28;20102;-71
2022/12/16 01:10:05;;;;;;;5.30;4.28;;;;;;;20.34;30.17;101003.81;5077386;28;20064;-71
2022/12/16 01:12:31;;;;;;;6.40;4.90;;;;;;;20.39;30.20;101009.38;5073567;28;20257;-71
2022/12/16 01:14:57;;;;;;;7.63;4.80;;;;;;;20.34;30.16;101010.94;5077394;28;20044;-71
2022/12/16 01:17:24;;;;;;;4.88;4.03;;;;;;;20.32;30.18;101010.28;5076576;28;20046;-71
2022/12/16 01:19:51;;;;;;;4.97;4.15;;;;;;;20.27;30.27;101016.09;5093265;27;20165;-71
2022/12/16 01:22:17;;;;;;;5.05;4.07;;;;;;;20.30;30.29;101018.41;5081113;28;20051;-71
2022/12/16 01:24:43;;;;;;;5.20;3.78;;;;;;;20.34;30.19;101018.88;5073302;28;20044;-71
2022/12/16 01:27:09;;;;;;;5.18;4.47;;;;;;;20.30;30.26;101026.34;5077589;28;20056;-71
2022/12/16 01:29:35;;;;;;;5.72;4.30;;;;;;;20.32;30.16;101028.81;5078190;28;20486;-71
2022/12/16 01:32:00;;;;;;;5.18;4.32;;;;;;;20.32;30.09;101029.63;5074711;28;20047;-71
2022/12/16 01:34:26;;;;;;;6.07;4.53;;;;;;;20.27;30.18;101033.78;5072285;28;21440;-70
2022/12/16 01:36:51;;;;;;;5.47;4.32;;;;;;;20.31;30.21;101030.63;5077218;28;20036;-70
2022/12/16 01:39:17;;;;;;;5.10;4.25;;;;;;;20.26;30.23;101037.41;5077750;28;20040;-71
2022/12/16 01:41:42;;;;;;;5.82;3.63;;;;;;;20.26;30.11;101035.59;5073401;28;20110;-71
2022/12/16 01:44:16;;;;;;;5.53;4.40;;;;;;;20.21;30.46;101041.44;5076253;28;20032;-71
2022/12/16 01:46:49;;;;;;;4.35;3.83;;;;;;;20.25;30.35;101035.78;5078512;28;20044;-70
2022/12/16 01:49:24;;;;;;;5.47;4.20;;;;;;;20.20;30.46;101050.34;5073623;28;20688;-71
2022/12/16 01:51:53;;;;;;;5.43;4.40;;;;;;;20.20;30.38;101045.06;5075952;28;20493;-71
2022/12/16 01:54:26;;;;;;;5.65;4.15;;;;;;;20.27;30.34;101050.47;5077626;28;20828;-71
2022/12/16 01:57:02;;;;;;;4.70;4.07;;;;;;;20.25;30.33;101057.75;5074218;28;20032;-71
2022/12/16 01:59:33;;;;;;;5.20;4.25;;;;;;;20.15;30.43;101046.59;5075561;28;20076;-71
2022/12/16 02:01:58;;;;;;;4.90;4.40;;;;;;;20.26;30.25;101050.66;5077540;28;20036;-71
2022/12/16 02:04:24;;;;;;;4.93;4.00;;;;;;;20.17;30.52;101056.00;5076943;28;20036;-70
2022/12/16 02:06:50;;;;;;;4.70;3.95;;;;;;;20.22;30.37;101048.34;5073956;28;20036;-71
2022/12/16 02:09:16;;;;;;;4.80;4.28;;;;;;;20.25;30.37;101049.00;5076238;28;20028;-71
2022/12/16 02:11:54;;;;;;;4.15;3.75;;;;;;;20.12;30.61;101053.06;5074751;28;20119;-71
2022/12/16 02:14:28;;;;;;;4.45;3.60;;;;;;;20.25;30.20;101057.75;5075501;28;20032;-71
2022/12/16 02:17:15;;;;;;;5.00;3.92;;;;;;;20.15;30.35;101057.19;5073044;28;20070;-71
2022/12/16 02:20:09;;;;;;;5.30;3.67;;;;;;;20.18;30.45;101056.84;5073421;28;20396;-70
2022/12/16 02:23:05;;;;;;;4.75;3.67;;;;;;;20.18;30.40;101048.91;5077660;28;20074;-71
2022/12/16 02:26:04;;;;;;;4.20;3.60;;;;;;;20.16;30.49;101061.47;5072995;28;20096;-71
2022/12/16 02:28:57;;;;;;;4.70;3.50;;;;;;;20.17;30.44;101050.72;5072438;28;20055;-71
2022/12/16 02:31:42;;;;;;;4.63;3.60;;;;;;;20.14;30.45;101056.38;5073597;28;20042;-70
2022/12/16 02:34:12;;;;;;;4.25;3.40;;;;;;;20.15;30.30;101052.72;5074460;28;20061;-71
2022/12/16 02:36:49;;;;;;;4.88;3.63;;;;;;;20.14;30.50;101059.00;5075842;28;20040;-71
2022/12/16 02:40:00;;;;;;;4.05;3.30;;;;;;;20.14;30.58;101060.81;5074946;28;20176;-71
2022/12/16 02:42:34;;;;;;;4.10;3.08;;;;;;;20.12;30.24;101058.38;5070501;28;20505;-70
2022/12/16 02:45:05;;;;;;;4.60;3.58;;;;;;;20.08;30.61;101056.22;5075084;28;20044;-71
2022/12/16 02:47:31;;;;;;;5.05;3.13;;;;;;;20.10;30.65;101057.69;5075941;28;20093;-71
2022/12/16 02:49:58;;;;;;;3.50;2.75;;;;;;;20.13;30.46;101049.44;5067273;28;20089;-71
2022/12/16 02:52:27;;;;;;;4.72;3.10;;;;;;;20.05;30.58;101056.59;5073800;28;20063;-70
2022/12/16 02:55:06;;;;;;;3.50;3.00;;;;;;;20.08;30.61;101050.94;5070635;28;20473;-71
2022/12/16 02:58:03;;;;;;;3.08;2.78;;;;;;;20.11;30.52;101051.44;5077381;28;20033;-71
2022/12/16 03:00:40;;;;;;;4.05;2.95;;;;;;;20.07;30.58;101059.88;5039537;28;20138;-71
2022/12/16 03:03:29;;;;;;;3.40;2.78;;;;;;;20.06;30.60;101052.94;5072854;28;20041;-70
2022/12/16 03:05:56;;;;;;;4.63;2.80;;;;;;;20.07;30.58;101060.69;5072088;28;20036;-71
2022/12/16 03:08:50;;;;;;;3.22;2.80;;;;;;;20.03;30.61;101055.94;5074470;28;20497;-70
2022/12/16 03:11:16;;;;;;;3.63;2.78;;;;;;;20.09;30.52;101052.59;5072917;28;20872;-71
2022/12/16 03:13:47;;;;;;;3.97;2.70;;;;;;;20.09;30.36;101047.28;5075854;28;20032;-71
2022/12/16 03:16:16;;;;;;;3.47;2.80;;;;;;;20.06;30.47;101053.75;5074052;28;20063;-71
2022/12/16 03:18:46;;;;;;;3.85;2.80;;;;;;;20.06;30.44;101047.66;5074219;28;20031;-70
2022/12/16 03:21:13;;;;;;;3.03;2.63;;;;;;;20.09;30.44;101056.03;5074564;28;20109;-70
2022/12/16 03:23:47;;;;;;;3.25;2.45;;;;;;;20.09;30.45;101053.41;5078872;28;20048;-71
2022/12/16 03:26:26;;;;;;;3.38;2.60;;;;;;;20.05;30.45;101059.22;5075978;28;20082;-71
2022/12/16 03:29:02;;;;;;;3.92;2.50;;;;;;;20.04;30.53;101060.22;5076614;28;20591;-71
2022/12/16 03:31:33;;;;;;;3.30;2.60;;;;;;;20.04;30.72;101050.47;5072041;28;20040;-71
2022/12/16 03:34:05;;;;;;;3.03;2.42;;;;;;;20.09;30.49;101055.22;5074146;28;20313;-71
2022/12/16 03:36:34;;;;;;;3.47;2.22;;;;;;;20.02;30.61;101060.41;5072905;28;20042;-70
2022/12/16 03:39:01;;;;;;;2.88;2.55;;;;;;;20.03;30.61;101054.13;5074308;28;20042;-71
2022/12/16 03:41:29;;;;;;;3.10;2.30;;;;;;;20.01;30.62;101058.75;5074914;28;20039;-71
2022/12/16 03:43:55;;;;;;;2.30;2.10;;;;;;;19.95;30.77;101061.28;5070796;28;20047;-72
2022/12/16 03:46:20;;;;;;;2.90;2.50;;;;;;;19.98;30.66;101058.28;5071310;28;20032;-71
2022/12/16 03:48:48;;;;;;;2.53;1.95;;;;;;;20.02;30.60;101059.56;5076665;28;20510;-71
2022/12/16 03:51:14;;;;;;;3.20;2.40;;;;;;;20.04;30.58;101065.50;5078167;28;20672;-71
2022/12/16 03:53:40;;;;;;;2.22;1.95;;;;;;;20.08;30.42;101072.09;5076197;28;20135;-71
2022/12/16 03:56:06;;;;;;;4.28;2.53;;;;;;;19.97;30.98;101075.16;5076770;28;20040;-70
2022/12/16 03:58:34;;;;;;;3.00;2.10;;;;;;;19.98;30.61;101071.50;5073046;28;20036;-71
2022/12/16 04:01:00;;;;;;;2.35;2.15;;;;;;;20.09;30.55;101081.66;5073967;28;20072;-71
2022/12/16 04:03:25;;;;;;;2.20;1.95;;;;;;;19.99;30.79;101073.16;5068761;28;20051;-71
2022/12/16 04:05:51;;;;;;;3.00;2.00;;;;;;;19.88;30.76;101075.19;5074482;28;20028;-71
2022/12/16 04:08:16;;;;;;;3.80;2.13;;;;;;;19.94;30.57;101075.50;5070960;28;21439;-71
2022/12/16 04:24:29;;;;;;;2.90;2.20;;;;;;;19.90;30.87;101101.44;5074952;28;20044;-71
